首页
METAR-TAF:

METAR-TAF

机场 :

英迪拉·甘地国际机场

新德里, 印度

纬度: 28-34N, 经度: 077-07E, 海拔: 220米

当前天气观测

该预报发布于21分钟前的00:30 UTC
风速5节,风向西转西南
温度 18°C
湿度 83%
气压 1016 hPa
能見度: 0400

METAR: VIDP 150030Z 25005KT 0400 R28/1200 R29/1100 FG VV/// 18/15 Q1016 BECMG 0350 FG

时间: 06:21 (00:51 UTC)

预报

该预报发布于1小时和51分钟前的23:00 UTC
预报有效从15日的 00点(UTC)到 16日的 06点(UTC)
风速3节,风向西转西南
能見度: 0400
散云层高于10000英尺
短暂存在
从 15日的 02点(UTC)到 15日的 03点(UTC)
能見度: 0300
成为
从 15日的 05点(UTC)到 15日的 07点(UTC)
能見度: 0700
成为
从 15日的 08点(UTC)到 15日的 10点(UTC)
风速6节,风向西北
能見度: 1200
成为
从 15日的 15点(UTC)到 15日的 17点(UTC)
风速4节,风向西转西南
能見度: 0800
少量云层高于10000英尺
成为
从 16日的 00点(UTC)到 16日的 02点(UTC)
能見度: 0400
成为
从 16日的 04点(UTC)到 16日的 06点(UTC)
风速5节,风向西转西北
能見度: 0800

TAF: VIDP 142300Z 1500/1606 25003KT 0400 FG SCT100 TEMPO 1502/1503 0300 FG BECMG 1505/1507 0700 FU BECMG 1508/1510 32006KT 1200 FU BECMG 1515/1517 25004KT 0800 FU FEW100 BECMG 1600/1602 0400 FG NSC BECMG 1604/1606 29005KT 0800 FU

超过4000个机场的气象观测和天气预报(METAR&TAF报告)。

可查询的气象台以黄色和红色小点在地图上表示。

将鼠标移到小点上方,可查看气象台名称。

然后点击查看天气观测和预报。

如需切换地图:点击带黑十字的绿色按钮放大地图;点击带横线的绿色按钮缩小地图;或者点击绿色箭头查看邻近地区的地图。


METAR-TAF: